sensor_id;sensor_type;location;lat;lon;timestamp;temperature;humidity
1103;DHT22;538;42.654;23.376;2022-11-23T00:01:21;7.50;88.90
1103;DHT22;538;42.654;23.376;2022-11-23T00:04:00;7.60;89.00
1103;DHT22;538;42.654;23.376;2022-11-23T00:06:30;7.60;88.80
1103;DHT22;538;42.654;23.376;2022-11-23T00:08:58;7.50;88.70
1103;DHT22;538;42.654;23.376;2022-11-23T00:11:35;7.20;89.40
1103;DHT22;538;42.654;23.376;2022-11-23T00:14:08;8.00;90.30
1103;DHT22;538;42.654;23.376;2022-11-23T00:16:35;7.20;90.50
1103;DHT22;538;42.654;23.376;2022-11-23T00:19:05;7.10;91.80
1103;DHT22;538;42.654;23.376;2022-11-23T00:21:35;7.20;91.90
1103;DHT22;538;42.654;23.376;2022-11-23T00:24:20;7.20;91.70
1103;DHT22;538;42.654;23.376;2022-11-23T00:26:50;7.30;91.90
1103;DHT22;538;42.654;23.376;2022-11-23T00:29:18;7.30;91.70
1103;DHT22;538;42.654;23.376;2022-11-23T00:31:51;7.40;91.50
1103;DHT22;538;42.654;23.376;2022-11-23T00:34:18;7.40;91.70
1103;DHT22;538;42.654;23.376;2022-11-23T00:36:53;7.50;91.60
1103;DHT22;538;42.654;23.376;2022-11-23T00:39:20;7.70;91.60
1103;DHT22;538;42.654;23.376;2022-11-23T00:41:50;7.60;90.80
1103;DHT22;538;42.654;23.376;2022-11-23T00:44:18;7.60;90.70
1103;DHT22;538;42.654;23.376;2022-11-23T00:46:45;7.50;90.10
1103;DHT22;538;42.654;23.376;2022-11-23T00:49:15;7.50;90.20
1103;DHT22;538;42.654;23.376;2022-11-23T00:51:46;7.50;90.40
1103;DHT22;538;42.654;23.376;2022-11-23T00:54:19;7.40;89.70
1103;DHT22;538;42.654;23.376;2022-11-23T00:56:46;7.30;90.20
1103;DHT22;538;42.654;23.376;2022-11-23T00:59:16;7.30;91.60
1103;DHT22;538;42.654;23.376;2022-11-23T01:01:43;7.20;92.60
1103;DHT22;538;42.654;23.376;2022-11-23T01:04:11;7.20;93.30
1103;DHT22;538;42.654;23.376;2022-11-23T01:06:39;7.20;94.60
1103;DHT22;538;42.654;23.376;2022-11-23T01:09:19;7.40;95.50
1103;DHT22;538;42.654;23.376;2022-11-23T01:11:51;7.40;96.10
1103;DHT22;538;42.654;23.376;2022-11-23T01:14:22;7.50;96.80
1103;DHT22;538;42.654;23.376;2022-11-23T01:16:50;7.60;97.40
1103;DHT22;538;42.654;23.376;2022-11-23T01:19:19;7.60;97.60
1103;DHT22;538;42.654;23.376;2022-11-23T01:21:46;7.70;97.10
1103;DHT22;538;42.654;23.376;2022-11-23T01:24:15;7.70;96.90
1103;DHT22;538;42.654;23.376;2022-11-23T01:26:42;7.80;97.30
1103;DHT22;538;42.654;23.376;2022-11-23T01:29:10;7.90;97.90
1103;DHT22;538;42.654;23.376;2022-11-23T01:31:39;7.90;97.70
1103;DHT22;538;42.654;23.376;2022-11-23T01:34:07;7.90;98.40
1103;DHT22;538;42.654;23.376;2022-11-23T01:36:34;7.90;98.40
1103;DHT22;538;42.654;23.376;2022-11-23T01:39:02;7.80;98.70
1103;DHT22;538;42.654;23.376;2022-11-23T01:41:31;7.80;98.70
1103;DHT22;538;42.654;23.376;2022-11-23T01:43:58;7.70;98.70
1103;DHT22;538;42.654;23.376;2022-11-23T01:46:25;7.80;98.80
1103;DHT22;538;42.654;23.376;2022-11-23T01:48:56;7.70;99.10
1103;DHT22;538;42.654;23.376;2022-11-23T01:51:28;7.70;99.80
1103;DHT22;538;42.654;23.376;2022-11-23T01:53:59;7.60;99.90
1103;DHT22;538;42.654;23.376;2022-11-23T01:56:29;7.60;99.90
1103;DHT22;538;42.654;23.376;2022-11-23T01:59:01;7.60;99.90
1103;DHT22;538;42.654;23.376;2022-11-23T02:01:28;7.60;99.90
1103;DHT22;538;42.654;23.376;2022-11-23T02:03:59;7.70;99.90
1103;DHT22;538;42.654;23.376;2022-11-23T02:06:27;7.80;99.90
1103;DHT22;538;42.654;23.376;2022-11-23T02:08:56;7.90;99.90
1103;DHT22;538;42.654;23.376;2022-11-23T02:11:23;7.90;99.90
1103;DHT22;538;42.654;23.376;2022-11-23T02:13:50;7.90;99.90
1103;DHT22;538;42.654;23.376;2022-11-23T02:16:18;7.90;99.90
1103;DHT22;538;42.654;23.376;2022-11-23T02:18:47;7.90;99.90
1103;DHT22;538;42.654;23.376;2022-11-23T02:21:17;7.90;99.90
1103;DHT22;538;42.654;23.376;2022-11-23T02:23:51;7.70;99.90
1103;DHT22;538;42.654;23.376;2022-11-23T02:26:25;7.80;99.90
1103;DHT22;538;42.654;23.376;2022-11-23T02:28:56;7.60;99.90
1103;DHT22;538;42.654;23.376;2022-11-23T02:31:24;7.70;99.90
1103;DHT22;538;42.654;23.376;2022-11-23T02:33:52;7.70;99.90
1103;DHT22;538;42.654;23.376;2022-11-23T02:36:38;7.70;99.90
1103;DHT22;538;42.654;23.376;2022-11-23T02:39:08;7.80;99.90
1103;DHT22;538;42.654;23.376;2022-11-23T02:41:42;7.80;99.90
1103;DHT22;538;42.654;23.376;2022-11-23T02:44:21;7.70;99.90
1103;DHT22;538;42.654;23.376;2022-11-23T02:46:50;7.70;99.90
1103;DHT22;538;42.654;23.376;2022-11-23T02:49:18;7.60;99.90
1103;DHT22;538;42.654;23.376;2022-11-23T02:51:45;7.60;99.90
1103;DHT22;538;42.654;23.376;2022-11-23T02:54:12;7.50;99.90
1103;DHT22;538;42.654;23.376;2022-11-23T02:56:41;7.60;99.90
1103;DHT22;538;42.654;23.376;2022-11-23T02:59:08;7.60;99.90
1103;DHT22;538;42.654;23.376;2022-11-23T03:01:35;7.40;99.90
1103;DHT22;538;42.654;23.376;2022-11-23T03:04:04;7.30;99.90
1103;DHT22;538;42.654;23.376;2022-11-23T03:06:31;7.20;99.90
1103;DHT22;538;42.654;23.376;2022-11-23T03:08:59;7.20;99.90
1103;DHT22;538;42.654;23.376;2022-11-23T03:11:26;7.10;99.90
1103;DHT22;538;42.654;23.376;2022-11-23T03:13:54;7.00;99.90
1103;DHT22;538;42.654;23.376;2022-11-23T03:16:21;7.00;99.90
1103;DHT22;538;42.654;23.376;2022-11-23T03:18:49;7.00;99.90
1103;DHT22;538;42.654;23.376;2022-11-23T03:21:17;7.00;99.90
1103;DHT22;538;42.654;23.376;2022-11-23T03:23:44;7.00;99.90
1103;DHT22;538;42.654;23.376;2022-11-23T03:26:11;6.90;99.90
1103;DHT22;538;42.654;23.376;2022-11-23T03:28:39;7.00;99.90
1103;DHT22;538;42.654;23.376;2022-11-23T03:31:07;7.00;99.90
1103;DHT22;538;42.654;23.376;2022-11-23T03:33:35;6.90;99.90
1103;DHT22;538;42.654;23.376;2022-11-23T03:36:02;7.00;99.90
1103;DHT22;538;42.654;23.376;2022-11-23T03:38:29;7.00;99.90
1103;DHT22;538;42.654;23.376;2022-11-23T03:40:56;7.10;99.90
1103;DHT22;538;42.654;23.376;2022-11-23T03:43:24;7.10;99.90
1103;DHT22;538;42.654;23.376;2022-11-23T03:45:51;7.10;99.90
1103;DHT22;538;42.654;23.376;2022-11-23T03:48:20;7.10;99.90
1103;DHT22;538;42.654;23.376;2022-11-23T03:50:47;7.10;99.90
1103;DHT22;538;42.654;23.376;2022-11-23T03:53:15;7.20;99.90
1103;DHT22;538;42.654;23.376;2022-11-23T03:55:44;7.30;99.90
1103;DHT22;538;42.654;23.376;2022-11-23T03:58:11;7.40;99.90
1103;DHT22;538;42.654;23.376;2022-11-23T04:00:39;7.40;99.90
1103;DHT22;538;42.654;23.376;2022-11-23T04:03:06;7.30;99.90
1103;DHT22;538;42.654;23.376;2022-11-23T04:05:35;7.30;99.90
1103;DHT22;538;42.654;23.376;2022-11-23T04:08:02;7.20;99.90
1103;DHT22;538;42.654;23.376;2022-11-23T04:10:30;7.20;99.90
1103;DHT22;538;42.654;23.376;2022-11-23T04:12:57;7.20;99.90
1103;DHT22;538;42.654;23.376;2022-11-23T04:15:24;7.20;99.90
1103;DHT22;538;42.654;23.376;2022-11-23T04:17:52;7.20;99.90
1103;DHT22;538;42.654;23.376;2022-11-23T04:20:19;7.20;99.90
1103;DHT22;538;42.654;23.376;2022-11-23T04:22:48;7.30;99.90
1103;DHT22;538;42.654;23.376;2022-11-23T04:25:16;7.30;99.90
1103;DHT22;538;42.654;23.376;2022-11-23T04:27:44;7.30;99.90
1103;DHT22;538;42.654;23.376;2022-11-23T04:30:12;7.40;99.90
1103;DHT22;538;42.654;23.376;2022-11-23T04:32:39;7.10;99.90
1103;DHT22;538;42.654;23.376;2022-11-23T04:35:07;7.20;99.90
1103;DHT22;538;42.654;23.376;2022-11-23T04:37:34;7.20;99.90
1103;DHT22;538;42.654;23.376;2022-11-23T04:40:03;7.10;99.90
1103;DHT22;538;42.654;23.376;2022-11-23T04:42:30;7.00;99.90
1103;DHT22;538;42.654;23.376;2022-11-23T04:44:58;7.00;99.90
1103;DHT22;538;42.654;23.376;2022-11-23T04:47:25;7.00;99.90
1103;DHT22;538;42.654;23.376;2022-11-23T04:49:52;6.90;99.90
1103;DHT22;538;42.654;23.376;2022-11-23T04:52:19;6.90;99.90
1103;DHT22;538;42.654;23.376;2022-11-23T04:54:46;6.90;99.90
1103;DHT22;538;42.654;23.376;2022-11-23T04:57:15;6.90;99.90
1103;DHT22;538;42.654;23.376;2022-11-23T04:59:42;6.90;99.90
1103;DHT22;538;42.654;23.376;2022-11-23T05:02:09;7.00;99.90
1103;DHT22;538;42.654;23.376;2022-11-23T05:04:37;7.00;99.90
1103;DHT22;538;42.654;23.376;2022-11-23T05:07:04;7.10;99.90
1103;DHT22;538;42.654;23.376;2022-11-23T05:09:31;7.20;99.90
1103;DHT22;538;42.654;23.376;2022-11-23T05:11:58;7.10;99.90
1103;DHT22;538;42.654;23.376;2022-11-23T05:14:27;7.00;99.90
1103;DHT22;538;42.654;23.376;2022-11-23T05:16:55;7.00;99.90
1103;DHT22;538;42.654;23.376;2022-11-23T05:19:22;7.10;99.90
1103;DHT22;538;42.654;23.376;2022-11-23T05:21:49;7.20;99.90
1103;DHT22;538;42.654;23.376;2022-11-23T05:24:16;7.20;99.90
1103;DHT22;538;42.654;23.376;2022-11-23T05:26:43;7.20;99.90
1103;DHT22;538;42.654;23.376;2022-11-23T05:29:10;7.30;99.90
1103;DHT22;538;42.654;23.376;2022-11-23T05:31:41;7.30;99.90
1103;DHT22;538;42.654;23.376;2022-11-23T05:34:08;7.20;99.90
1103;DHT22;538;42.654;23.376;2022-11-23T05:36:44;7.30;99.90
1103;DHT22;538;42.654;23.376;2022-11-23T05:39:11;7.30;99.90
1103;DHT22;538;42.654;23.376;2022-11-23T05:41:39;7.40;99.90
1103;DHT22;538;42.654;23.376;2022-11-23T05:44:06;7.40;99.90
1103;DHT22;538;42.654;23.376;2022-11-23T05:46:33;7.30;99.90
1103;DHT22;538;42.654;23.376;2022-11-23T05:49:02;7.30;99.90
1103;DHT22;538;42.654;23.376;2022-11-23T05:51:29;7.30;99.90
1103;DHT22;538;42.654;23.376;2022-11-23T05:53:56;7.30;99.90
1103;DHT22;538;42.654;23.376;2022-11-23T05:56:24;7.40;99.90
1103;DHT22;538;42.654;23.376;2022-11-23T05:58:53;7.30;99.90
1103;DHT22;538;42.654;23.376;2022-11-23T06:01:20;7.40;99.90
1103;DHT22;538;42.654;23.376;2022-11-23T06:03:48;7.50;99.90
1103;DHT22;538;42.654;23.376;2022-11-23T06:06:17;7.40;99.90
1103;DHT22;538;42.654;23.376;2022-11-23T06:08:44;7.40;99.90
1103;DHT22;538;42.654;23.376;2022-11-23T06:11:11;7.50;99.90
1103;DHT22;538;42.654;23.376;2022-11-23T06:13:38;7.40;99.90
1103;DHT22;538;42.654;23.376;2022-11-23T06:16:06;7.60;99.90
1103;DHT22;538;42.654;23.376;2022-11-23T06:18:34;7.70;99.90
1103;DHT22;538;42.654;23.376;2022-11-23T06:21:01;7.70;99.90
1103;DHT22;538;42.654;23.376;2022-11-23T06:23:30;7.70;99.90
1103;DHT22;538;42.654;23.376;2022-11-23T06:25:59;7.70;99.90
1103;DHT22;538;42.654;23.376;2022-11-23T06:28:26;7.60;99.90
1103;DHT22;538;42.654;23.376;2022-11-23T06:30:53;7.80;99.90
1103;DHT22;538;42.654;23.376;2022-11-23T06:33:21;7.80;99.90
1103;DHT22;538;42.654;23.376;2022-11-23T06:35:52;7.80;99.90
1103;DHT22;538;42.654;23.376;2022-11-23T06:38:20;7.70;99.90
1103;DHT22;538;42.654;23.376;2022-11-23T06:40:49;7.80;99.90
1103;DHT22;538;42.654;23.376;2022-11-23T06:43:16;7.90;99.90
1103;DHT22;538;42.654;23.376;2022-11-23T06:45:44;7.80;99.90
1103;DHT22;538;42.654;23.376;2022-11-23T06:48:11;8.00;99.90
1103;DHT22;538;42.654;23.376;2022-11-23T06:50:39;9.20;99.90
1103;DHT22;538;42.654;23.376;2022-11-23T06:53:06;8.00;99.90
1103;DHT22;538;42.654;23.376;2022-11-23T06:55:33;8.00;99.90
1103;DHT22;538;42.654;23.376;2022-11-23T06:58:01;8.00;99.90
1103;DHT22;538;42.654;23.376;2022-11-23T07:00:28;8.10;99.90
1103;DHT22;538;42.654;23.376;2022-11-23T07:02:56;8.10;99.90
1103;DHT22;538;42.654;23.376;2022-11-23T07:05:27;7.50;99.90
1103;DHT22;538;42.654;23.376;2022-11-23T07:07:54;8.30;99.90
1103;DHT22;538;42.654;23.376;2022-11-23T07:10:21;8.50;99.90
1103;DHT22;538;42.654;23.376;2022-11-23T07:12:50;8.60;99.90
1103;DHT22;538;42.654;23.376;2022-11-23T07:15:19;8.70;99.90
1103;DHT22;538;42.654;23.376;2022-11-23T07:17:46;8.70;99.90
1103;DHT22;538;42.654;23.376;2022-11-23T07:20:14;8.80;99.90
1103;DHT22;538;42.654;23.376;2022-11-23T07:22:41;9.00;99.90
1103;DHT22;538;42.654;23.376;2022-11-23T07:25:12;9.00;99.90
1103;DHT22;538;42.654;23.376;2022-11-23T07:27:43;8.90;99.90
1103;DHT22;538;42.654;23.376;2022-11-23T07:30:10;9.00;99.90
1103;DHT22;538;42.654;23.376;2022-11-23T07:32:39;9.00;99.90
1103;DHT22;538;42.654;23.376;2022-11-23T07:35:07;9.10;99.90
1103;DHT22;538;42.654;23.376;2022-11-23T07:37:34;9.10;99.90
1103;DHT22;538;42.654;23.376;2022-11-23T07:40:01;9.10;99.90
1103;DHT22;538;42.654;23.376;2022-11-23T07:42:30;9.10;99.90
1103;DHT22;538;42.654;23.376;2022-11-23T07:44:58;9.20;99.90
1103;DHT22;538;42.654;23.376;2022-11-23T07:47:25;9.30;99.90
1103;DHT22;538;42.654;23.376;2022-11-23T07:49:53;9.40;99.90
1103;DHT22;538;42.654;23.376;2022-11-23T07:52:21;9.50;99.90
1103;DHT22;538;42.654;23.376;2022-11-23T07:54:50;9.80;99.10
1103;DHT22;538;42.654;23.376;2022-11-23T07:57:17;10.00;96.30
1103;DHT22;538;42.654;23.376;2022-11-23T07:59:45;10.30;93.80
1103;DHT22;538;42.654;23.376;2022-11-23T08:02:14;10.30;91.40
1103;DHT22;538;42.654;23.376;2022-11-23T08:04:42;10.20;88.90
1103;DHT22;538;42.654;23.376;2022-11-23T08:07:10;10.30;88.00
1103;DHT22;538;42.654;23.376;2022-11-23T08:09:38;10.70;90.30
1103;DHT22;538;42.654;23.376;2022-11-23T08:12:05;10.90;86.50
1103;DHT22;538;42.654;23.376;2022-11-23T08:14:33;11.30;79.40
1103;DHT22;538;42.654;23.376;2022-11-23T08:17:00;11.60;72.60
1103;DHT22;538;42.654;23.376;2022-11-23T08:19:27;11.80;67.60
1103;DHT22;538;42.654;23.376;2022-11-23T08:21:54;12.20;68.00
1103;DHT22;538;42.654;23.376;2022-11-23T08:24:24;12.50;64.40
1103;DHT22;538;42.654;23.376;2022-11-23T08:26:51;12.70;57.60
1103;DHT22;538;42.654;23.376;2022-11-23T08:29:18;12.70;55.00
1103;DHT22;538;42.654;23.376;2022-11-23T08:31:45;12.60;56.10
1103;DHT22;538;42.654;23.376;2022-11-23T08:34:12;12.70;54.40
1103;DHT22;538;42.654;23.376;2022-11-23T08:36:41;12.80;53.20
1103;DHT22;538;42.654;23.376;2022-11-23T08:39:08;13.10;53.20
1103;DHT22;538;42.654;23.376;2022-11-23T08:41:38;13.70;48.20
1103;DHT22;538;42.654;23.376;2022-11-23T08:44:06;14.00;42.10
1103;DHT22;538;42.654;23.376;2022-11-23T08:46:37;14.10;40.00
1103;DHT22;538;42.654;23.376;2022-11-23T08:49:08;14.10;40.70
1103;DHT22;538;42.654;23.376;2022-11-23T08:51:35;13.90;39.20
1103;DHT22;538;42.654;23.376;2022-11-23T08:54:05;14.20;39.60
1103;DHT22;538;42.654;23.376;2022-11-23T08:56:35;14.20;39.00
1103;DHT22;538;42.654;23.376;2022-11-23T08:59:04;14.10;37.80
1103;DHT22;538;42.654;23.376;2022-11-23T09:01:31;14.60;37.60
1103;DHT22;538;42.654;23.376;2022-11-23T09:03:58;14.80;34.50
1103;DHT22;538;42.654;23.376;2022-11-23T09:06:26;15.00;33.20
1103;DHT22;538;42.654;23.376;2022-11-23T09:08:54;15.10;33.00
1103;DHT22;538;42.654;23.376;2022-11-23T09:11:22;15.30;31.30
1103;DHT22;538;42.654;23.376;2022-11-23T09:13:50;16.00;32.70
1103;DHT22;538;42.654;23.376;2022-11-23T09:16:19;15.90;28.50
1103;DHT22;538;42.654;23.376;2022-11-23T09:18:46;16.00;27.10
1103;DHT22;538;42.654;23.376;2022-11-23T09:21:14;16.10;25.90
1103;DHT22;538;42.654;23.376;2022-11-23T09:23:44;16.20;26.30
1103;DHT22;538;42.654;23.376;2022-11-23T09:26:11;16.60;26.70
1103;DHT22;538;42.654;23.376;2022-11-23T09:28:38;16.80;25.00
1103;DHT22;538;42.654;23.376;2022-11-23T09:31:10;17.00;24.50
1103;DHT22;538;42.654;23.376;2022-11-23T09:33:38;17.00;23.30
1103;DHT22;538;42.654;23.376;2022-11-23T09:36:06;16.90;24.30
1103;DHT22;538;42.654;23.376;2022-11-23T09:38:34;17.00;22.90
1103;DHT22;538;42.654;23.376;2022-11-23T09:41:15;17.10;22.30
1103;DHT22;538;42.654;23.376;2022-11-23T09:43:58;17.10;22.30
1103;DHT22;538;42.654;23.376;2022-11-23T09:46:34;17.20;22.30
1103;DHT22;538;42.654;23.376;2022-11-23T09:49:13;17.40;21.10
1103;DHT22;538;42.654;23.376;2022-11-23T09:51:45;17.50;20.90
1103;DHT22;538;42.654;23.376;2022-11-23T09:54:23;17.90;20.40
1103;DHT22;538;42.654;23.376;2022-11-23T09:56:54;18.20;19.70
1103;DHT22;538;42.654;23.376;2022-11-23T09:59:30;18.60;19.50
1103;DHT22;538;42.654;23.376;2022-11-23T10:02:02;18.80;18.90
1103;DHT22;538;42.654;23.376;2022-11-23T10:04:33;19.00;18.50
1103;DHT22;538;42.654;23.376;2022-11-23T10:07:10;19.20;17.80
1103;DHT22;538;42.654;23.376;2022-11-23T10:09:48;19.20;17.10
1103;DHT22;538;42.654;23.376;2022-11-23T10:12:33;19.60;17.20
1103;DHT22;538;42.654;23.376;2022-11-23T10:15:11;19.60;16.90
1103;DHT22;538;42.654;23.376;2022-11-23T10:18:00;19.10;17.60
1103;DHT22;538;42.654;23.376;2022-11-23T10:26:30;17.50;20.10
1103;DHT22;538;42.654;23.376;2022-11-23T10:29:09;17.10;21.30
1103;DHT22;538;42.654;23.376;2022-11-23T10:31:38;16.70;22.00
1103;DHT22;538;42.654;23.376;2022-11-23T10:34:09;16.50;23.00
1103;DHT22;538;42.654;23.376;2022-11-23T10:36:39;15.90;23.10
1103;DHT22;538;42.654;23.376;2022-11-23T10:39:15;15.20;26.00
1103;DHT22;538;42.654;23.376;2022-11-23T10:41:43;14.90;28.30
1103;DHT22;538;42.654;23.376;2022-11-23T10:44:24;14.90;29.60
1103;DHT22;538;42.654;23.376;2022-11-23T10:46:55;14.80;30.20
1103;DHT22;538;42.654;23.376;2022-11-23T10:49:23;14.40;29.90
1103;DHT22;538;42.654;23.376;2022-11-23T10:52:03;14.10;31.80
1103;DHT22;538;42.654;23.376;2022-11-23T10:54:34;14.00;32.90
1103;DHT22;538;42.654;23.376;2022-11-23T10:57:29;14.00;33.70
1103;DHT22;538;42.654;23.376;2022-11-23T11:00:03;14.30;31.80
1103;DHT22;538;42.654;23.376;2022-11-23T11:02:37;14.20;32.40
1103;DHT22;538;42.654;23.376;2022-11-23T11:05:23;14.30;33.10
1103;DHT22;538;42.654;23.376;2022-11-23T11:07:53;13.90;34.70
1103;DHT22;538;42.654;23.376;2022-11-23T11:10:33;13.70;36.60
1103;DHT22;538;42.654;23.376;2022-11-23T11:13:00;13.80;37.40
1103;DHT22;538;42.654;23.376;2022-11-23T11:15:28;13.90;37.90
1103;DHT22;538;42.654;23.376;2022-11-23T11:17:56;14.10;38.40
1103;DHT22;538;42.654;23.376;2022-11-23T11:20:30;15.30;33.50
1103;DHT22;538;42.654;23.376;2022-11-23T11:23:01;15.40;28.20
1103;DHT22;538;42.654;23.376;2022-11-23T11:25:32;15.20;28.50
1103;DHT22;538;42.654;23.376;2022-11-23T11:28:01;14.90;29.40
1103;DHT22;538;42.654;23.376;2022-11-23T11:30:36;14.90;30.60
1103;DHT22;538;42.654;23.376;2022-11-23T11:33:12;14.80;30.70
1103;DHT22;538;42.654;23.376;2022-11-23T11:35:44;14.60;33.20
1103;DHT22;538;42.654;23.376;2022-11-23T11:38:17;14.70;33.40
1103;DHT22;538;42.654;23.376;2022-11-23T11:40:48;15.60;30.00
1103;DHT22;538;42.654;23.376;2022-11-23T11:43:17;15.60;30.60
1103;DHT22;538;42.654;23.376;2022-11-23T11:45:47;16.40;24.80
1103;DHT22;538;42.654;23.376;2022-11-23T11:48:18;16.20;21.20
1103;DHT22;538;42.654;23.376;2022-11-23T11:50:51;15.90;21.00
1103;DHT22;538;42.654;23.376;2022-11-23T11:53:23;15.50;18.70
1103;DHT22;538;42.654;23.376;2022-11-23T11:55:56;15.30;18.90
1103;DHT22;538;42.654;23.376;2022-11-23T11:58:24;15.20;19.00
1103;DHT22;538;42.654;23.376;2022-11-23T12:00:58;15.80;18.90
1103;DHT22;538;42.654;23.376;2022-11-23T12:03:37;16.20;20.00
1103;DHT22;538;42.654;23.376;2022-11-23T12:06:10;18.00;14.40
1103;DHT22;538;42.654;23.376;2022-11-23T12:08:47;20.20;11.00
1103;DHT22;538;42.654;23.376;2022-11-23T12:11:16;22.00;9.80
1103;DHT22;538;42.654;23.376;2022-11-23T12:13:44;23.50;6.70
1103;DHT22;538;42.654;23.376;2022-11-23T12:16:18;24.50;5.00
1103;DHT22;538;42.654;23.376;2022-11-23T12:19:10;25.40;3.60
1103;DHT22;538;42.654;23.376;2022-11-23T12:22:05;26.30;3.00
1103;DHT22;538;42.654;23.376;2022-11-23T12:24:55;27.00;1.40
1103;DHT22;538;42.654;23.376;2022-11-23T12:27:32;25.40;2.60
1103;DHT22;538;42.654;23.376;2022-11-23T12:30:21;25.30;3.50
1103;DHT22;538;42.654;23.376;2022-11-23T12:36:12;24.70;2.40
1103;DHT22;538;42.654;23.376;2022-11-23T12:38:49;24.30;2.40
1103;DHT22;538;42.654;23.376;2022-11-23T12:41:29;24.50;1.90
1103;DHT22;538;42.654;23.376;2022-11-23T12:44:36;25.20;1.60
1103;DHT22;538;42.654;23.376;2022-11-23T12:47:13;25.50;1.20
1103;DHT22;538;42.654;23.376;2022-11-23T12:49:48;25.20;1.10
1103;DHT22;538;42.654;23.376;2022-11-23T12:52:30;25.60;1.10
1103;DHT22;538;42.654;23.376;2022-11-23T12:55:04;26.10;1.70
1103;DHT22;538;42.654;23.376;2022-11-23T12:57:45;26.10;1.00
1103;DHT22;538;42.654;23.376;2022-11-23T13:00:16;26.30;1.00
1103;DHT22;538;42.654;23.376;2022-11-23T13:06:06;26.40;1.00
1103;DHT22;538;42.654;23.376;2022-11-23T13:08:58;26.30;1.00
1103;DHT22;538;42.654;23.376;2022-11-23T13:11:37;26.40;1.00
1103;DHT22;538;42.654;23.376;2022-11-23T13:14:17;26.20;1.00
1103;DHT22;538;42.654;23.376;2022-11-23T13:16:57;26.00;1.00
1103;DHT22;538;42.654;23.376;2022-11-23T13:19:47;25.80;1.00
1103;DHT22;538;42.654;23.376;2022-11-23T13:22:18;25.20;1.00
1103;DHT22;538;42.654;23.376;2022-11-23T13:25:03;24.60;1.00
1103;DHT22;538;42.654;23.376;2022-11-23T13:27:45;24.30;1.00
1103;DHT22;538;42.654;23.376;2022-11-23T13:30:27;23.50;1.00
1103;DHT22;538;42.654;23.376;2022-11-23T13:32:57;22.40;1.00
1103;DHT22;538;42.654;23.376;2022-11-23T13:35:46;21.50;1.20
1103;DHT22;538;42.654;23.376;2022-11-23T13:38:34;20.60;2.00
1103;DHT22;538;42.654;23.376;2022-11-23T13:41:02;20.10;2.20
1103;DHT22;538;42.654;23.376;2022-11-23T13:43:31;19.50;3.00
1103;DHT22;538;42.654;23.376;2022-11-23T13:46:21;19.00;3.70
1103;DHT22;538;42.654;23.376;2022-11-23T13:48:50;18.60;4.40
1103;DHT22;538;42.654;23.376;2022-11-23T13:51:27;18.20;4.80
1103;DHT22;538;42.654;23.376;2022-11-23T13:53:58;17.90;5.40
1103;DHT22;538;42.654;23.376;2022-11-23T13:56:34;17.70;5.50
1103;DHT22;538;42.654;23.376;2022-11-23T13:59:30;17.40;4.70
1103;DHT22;538;42.654;23.376;2022-11-23T14:02:29;17.10;5.30
1103;DHT22;538;42.654;23.376;2022-11-23T14:05:35;16.80;5.80
1103;DHT22;538;42.654;23.376;2022-11-23T14:08:19;16.70;6.40
1103;DHT22;538;42.654;23.376;2022-11-23T14:10:48;16.60;7.20
1103;DHT22;538;42.654;23.376;2022-11-23T14:13:18;16.30;7.10
1103;DHT22;538;42.654;23.376;2022-11-23T14:15:53;16.10;7.50
1103;DHT22;538;42.654;23.376;2022-11-23T14:18:46;15.90;7.10
1103;DHT22;538;42.654;23.376;2022-11-23T14:21:21;15.80;7.20
1103;DHT22;538;42.654;23.376;2022-11-23T14:27:14;15.60;5.10
1103;DHT22;538;42.654;23.376;2022-11-23T14:30:05;15.50;6.60
1103;DHT22;538;42.654;23.376;2022-11-23T14:32:53;15.50;8.30
1103;DHT22;538;42.654;23.376;2022-11-23T14:35:29;15.30;7.30
1103;DHT22;538;42.654;23.376;2022-11-23T14:38:33;15.20;8.10
1103;DHT22;538;42.654;23.376;2022-11-23T14:41:06;15.00;8.00
1103;DHT22;538;42.654;23.376;2022-11-23T14:43:35;14.90;9.00
1103;DHT22;538;42.654;23.376;2022-11-23T14:46:13;14.80;9.30
1103;DHT22;538;42.654;23.376;2022-11-23T14:48:40;14.80;9.00
1103;DHT22;538;42.654;23.376;2022-11-23T14:51:13;14.70;9.40
1103;DHT22;538;42.654;23.376;2022-11-23T14:53:47;14.60;8.80
1103;DHT22;538;42.654;23.376;2022-11-23T14:56:21;14.50;9.20
1103;DHT22;538;42.654;23.376;2022-11-23T14:58:49;14.50;9.50
1103;DHT22;538;42.654;23.376;2022-11-23T15:01:20;14.40;9.90
1103;DHT22;538;42.654;23.376;2022-11-23T15:03:57;14.20;9.50
1103;DHT22;538;42.654;23.376;2022-11-23T15:06:38;14.20;9.80
1103;DHT22;538;42.654;23.376;2022-11-23T15:09:14;14.20;10.10
1103;DHT22;538;42.654;23.376;2022-11-23T15:11:43;14.10;10.20
1103;DHT22;538;42.654;23.376;2022-11-23T15:14:17;14.00;10.50
1103;DHT22;538;42.654;23.376;2022-11-23T15:16:45;13.90;10.90
1103;DHT22;538;42.654;23.376;2022-11-23T15:19:26;13.90;11.00
1103;DHT22;538;42.654;23.376;2022-11-23T15:21:56;14.00;11.20
1103;DHT22;538;42.654;23.376;2022-11-23T15:24:24;14.10;12.40
1103;DHT22;538;42.654;23.376;2022-11-23T15:26:52;14.10;12.50
1103;DHT22;538;42.654;23.376;2022-11-23T15:29:29;14.00;12.40
1103;DHT22;538;42.654;23.376;2022-11-23T15:32:02;14.00;12.40
1103;DHT22;538;42.654;23.376;2022-11-23T15:34:30;13.90;12.10
1103;DHT22;538;42.654;23.376;2022-11-23T15:36:58;13.80;11.40
1103;DHT22;538;42.654;23.376;2022-11-23T15:39:26;13.80;12.20
1103;DHT22;538;42.654;23.376;2022-11-23T15:41:54;13.80;12.20
1103;DHT22;538;42.654;23.376;2022-11-23T15:44:23;14.00;12.80
1103;DHT22;538;42.654;23.376;2022-11-23T15:46:56;14.00;13.10
1103;DHT22;538;42.654;23.376;2022-11-23T15:49:23;14.00;13.70
1103;DHT22;538;42.654;23.376;2022-11-23T15:51:53;13.90;12.90
1103;DHT22;538;42.654;23.376;2022-11-23T15:54:32;13.90;12.90
1103;DHT22;538;42.654;23.376;2022-11-23T15:57:00;13.80;13.40
1103;DHT22;538;42.654;23.376;2022-11-23T15:59:32;13.90;14.10
1103;DHT22;538;42.654;23.376;2022-11-23T16:02:05;13.90;15.30
1103;DHT22;538;42.654;23.376;2022-11-23T16:04:36;13.80;15.10
1103;DHT22;538;42.654;23.376;2022-11-23T16:07:14;13.80;15.40
1103;DHT22;538;42.654;23.376;2022-11-23T16:09:45;13.70;15.40
1103;DHT22;538;42.654;23.376;2022-11-23T16:12:25;13.60;16.00
1103;DHT22;538;42.654;23.376;2022-11-23T16:14:53;13.60;16.00
1103;DHT22;538;42.654;23.376;2022-11-23T16:17:22;13.70;16.10
1103;DHT22;538;42.654;23.376;2022-11-23T16:19:51;13.50;16.70
1103;DHT22;538;42.654;23.376;2022-11-23T16:22:29;13.60;17.00
1103;DHT22;538;42.654;23.376;2022-11-23T16:25:03;13.40;17.30
1103;DHT22;538;42.654;23.376;2022-11-23T16:27:31;13.40;17.50
1103;DHT22;538;42.654;23.376;2022-11-23T16:29:58;13.40;17.70
1103;DHT22;538;42.654;23.376;2022-11-23T16:32:29;13.40;18.60
1103;DHT22;538;42.654;23.376;2022-11-23T16:37:28;13.40;18.80
1103;DHT22;538;42.654;23.376;2022-11-23T16:40:00;13.40;19.10
1103;DHT22;538;42.654;23.376;2022-11-23T16:42:27;13.20;19.40
1103;DHT22;538;42.654;23.376;2022-11-23T16:44:54;13.10;20.30
1103;DHT22;538;42.654;23.376;2022-11-23T16:47:23;13.00;21.30
1103;DHT22;538;42.654;23.376;2022-11-23T16:49:51;12.80;22.50
1103;DHT22;538;42.654;23.376;2022-11-23T16:52:21;12.50;23.50
1103;DHT22;538;42.654;23.376;2022-11-23T16:54:49;12.80;25.70
1103;DHT22;538;42.654;23.376;2022-11-23T16:57:26;12.50;25.70